Decoded Metar for ROIG (ISHIGAKI in JAPAN) (IATA:ISG) | Meteo·Mobile Aviation Weather
aviador You're here:

ROIG Decoded Metar

ISHIGAKI in JAPAN
Report Time2019-06-16 04:00:00
UTC Time2019-06-16 04:31:30
Flight Rules vfr VFR
Wind070° at 11 kt
W.Decomp.*RWY 04: 9.1 kt HW 6.2 kt RCW
Visibility9999 m
Phenomena:N/A
Clouds:Few 022 Hf
Broken 090 Hf
Expected CloudBase > 2,000 ft AGL from Temp-Dew spread
Ceiling9,000 ft
Temp28°C (ISA +13)
Dew Point23°C (74% RH)
Heat Index31.2°C
QNH1009 hPa
Density Alt2,028 ft
Elevation23 ft
Report Wrong Elevation
Raw Report
ROIG 160400Z 07011KT 9999 FEW022 BKN090 28/23 Q1009=

Extra information for ROIG:More info

Metar Taf Metar & Taf Last 4 Metars F.Rules Stats Wind Profile Meteogram Temp Stats Airport Information Weather charts Add Link Nearby VenuesMetar ALERT Operation Metar Decoded Social comments